createdAt,value
2019-05-14T00:00:32.131Z,99.90
2019-05-14T00:03:02.337Z,99.90
2019-05-14T00:05:32.174Z,99.90
2019-05-14T00:08:02.316Z,99.60
2019-05-14T00:10:32.226Z,99.10
2019-05-14T00:13:01.641Z,97.60
2019-05-14T00:15:32.221Z,98.20
2019-05-14T00:18:01.211Z,96.10
2019-05-14T00:20:31.421Z,95.50
2019-05-14T00:23:01.462Z,95.60
2019-05-14T00:25:31.346Z,94.90
2019-05-14T00:28:01.311Z,95.20
2019-05-14T00:30:31.616Z,92.90
2019-05-14T00:33:01.261Z,93.60
2019-05-14T00:35:32.034Z,92.70
2019-05-14T00:38:01.326Z,94.70
2019-05-14T00:40:31.427Z,96.50
2019-05-14T00:43:02.469Z,99.60
2019-05-14T00:45:31.288Z,97.60
2019-05-14T00:48:01.471Z,94.70
2019-05-14T00:50:31.729Z,95.80
2019-05-14T00:53:01.898Z,97.00
2019-05-14T00:55:31.604Z,95.10
2019-05-14T00:58:02.341Z,96.80
2019-05-14T01:00:31.295Z,92.60
2019-05-14T01:03:01.924Z,93.90
2019-05-14T01:05:32.111Z,95.00
2019-05-14T01:08:01.893Z,94.50
2019-05-14T01:10:31.313Z,91.90
2019-05-14T01:13:01.227Z,90.60
2019-05-14T01:15:32.075Z,91.40
2019-05-14T01:18:02.187Z,90.00
2019-05-14T01:20:31.936Z,89.50
2019-05-14T01:23:02.312Z,90.30
2019-05-14T01:25:31.766Z,90.20
2019-05-14T01:28:02.146Z,89.00
2019-05-14T01:30:31.891Z,88.60
2019-05-14T01:33:01.754Z,89.30
2019-05-14T01:35:31.623Z,86.20
2019-05-14T01:38:02.424Z,83.00
2019-05-14T01:40:31.507Z,85.50
2019-05-14T01:43:02.414Z,91.50
2019-05-14T01:45:31.645Z,91.70
2019-05-14T01:48:01.175Z,93.20
2019-05-14T01:50:32.008Z,95.60
2019-05-14T01:53:01.254Z,84.50
2019-05-14T01:55:32.282Z,82.50
2019-05-14T01:58:02.104Z,83.00
2019-05-14T02:00:31.407Z,79.20
2019-05-14T02:03:01.850Z,77.10
2019-05-14T02:05:31.122Z,79.10
2019-05-14T02:08:01.700Z,79.80
2019-05-14T02:10:31.488Z,79.40
2019-05-14T02:13:02.015Z,78.30
2019-05-14T02:15:39.570Z,80.30
2019-05-14T02:18:02.379Z,79.20
2019-05-14T02:20:32.079Z,82.70
2019-05-14T02:23:01.489Z,78.80
2019-05-14T02:25:32.077Z,78.00
2019-05-14T02:28:01.387Z,80.90
2019-05-14T02:30:45.823Z,82.40
2019-05-14T02:33:00.341Z,82.30
2019-05-14T02:35:29.799Z,79.20
2019-05-14T02:37:59.618Z,76.90
2019-05-14T02:40:29.504Z,74.50
2019-05-14T02:42:59.301Z,76.30
2019-05-14T02:45:30.249Z,76.90
2019-05-14T02:48:00.455Z,76.30
2019-05-14T02:50:29.601Z,79.80
2019-05-14T02:52:59.876Z,76.70
2019-05-14T02:55:29.907Z,75.20
2019-05-14T02:57:59.873Z,75.60
2019-05-14T03:00:29.997Z,77.50
2019-05-14T03:02:59.909Z,77.00
2019-05-14T03:05:29.547Z,79.60
2019-05-14T03:07:59.821Z,85.10
2019-05-14T03:10:30.130Z,90.80
2019-05-14T03:12:59.211Z,83.60
2019-05-14T03:15:29.121Z,81.60
2019-05-14T03:17:59.991Z,79.40
2019-05-14T03:20:28.910Z,76.20
2019-05-14T03:23:05.182Z,74.80
2019-05-14T03:25:30.066Z,77.70
2019-05-14T03:28:00.019Z,78.00
2019-05-14T03:30:32.549Z,82.40
2019-05-14T03:33:02.946Z,82.50
2019-05-14T03:35:40.755Z,82.00
2019-05-14T03:38:00.413Z,85.40
2019-05-14T03:40:29.556Z,86.70
2019-05-14T03:42:59.941Z,77.50
2019-05-14T03:45:30.103Z,78.00
2019-05-14T03:47:59.049Z,92.30
2019-05-14T03:50:29.707Z,83.30
2019-05-14T03:52:59.428Z,78.40
2019-05-14T03:55:29.312Z,76.80
2019-05-14T03:57:59.562Z,77.70
2019-05-14T04:00:50.438Z,78.40
2019-05-14T04:03:19.937Z,75.60
2019-05-14T04:05:49.934Z,77.80
2019-05-14T04:08:21.334Z,72.80
2019-05-14T04:10:54.156Z,72.30
2019-05-14T04:13:23.944Z,72.90
2019-05-14T04:15:59.924Z,73.90
2019-05-14T04:18:28.921Z,73.40
2019-05-14T04:21:01.235Z,72.00
2019-05-14T04:23:31.264Z,73.50
2019-05-14T04:26:03.149Z,72.30
2019-05-14T04:28:34.155Z,73.20
2019-05-14T04:31:04.383Z,70.30
2019-05-14T04:33:35.217Z,70.90
2019-05-14T04:36:04.183Z,70.00
2019-05-14T04:38:32.773Z,70.20
2019-05-14T04:41:01.451Z,71.20
2019-05-14T04:43:30.068Z,69.80
2019-05-14T04:45:59.290Z,70.50
2019-05-14T04:48:43.508Z,72.50
2019-05-14T04:51:09.925Z,69.70
2019-05-14T04:53:39.556Z,71.40
2019-05-14T04:56:09.792Z,71.20
2019-05-14T04:58:40.872Z,73.70
2019-05-14T05:01:09.898Z,77.50
2019-05-14T05:03:40.062Z,71.50
2019-05-14T05:06:10.036Z,73.10
2019-05-14T05:08:39.623Z,73.10
2019-05-14T05:11:09.491Z,73.30
2019-05-14T05:13:39.882Z,73.90
2019-05-14T05:16:10.015Z,74.90
2019-05-14T05:18:40.055Z,71.40
2019-05-14T05:21:08.979Z,69.10
2019-05-14T05:23:38.723Z,76.70
2019-05-14T05:26:09.255Z,69.70
2019-05-14T05:28:39.073Z,69.80
2019-05-14T05:31:09.283Z,73.40
2019-05-14T05:33:38.447Z,72.90
2019-05-14T05:36:09.436Z,70.90
2019-05-14T05:38:39.396Z,72.00
2019-05-14T05:41:08.829Z,72.70
2019-05-14T05:43:39.292Z,67.80
2019-05-14T05:46:08.752Z,64.80
2019-05-14T05:48:38.818Z,64.20
2019-05-14T05:51:09.105Z,67.40
2019-05-14T05:53:39.403Z,68.90
2019-05-14T05:56:08.946Z,64.30
2019-05-14T05:58:39.768Z,64.60
2019-05-14T06:01:09.732Z,61.90
2019-05-14T06:03:39.236Z,63.80
2019-05-14T06:06:13.469Z,64.10
2019-05-14T06:08:38.916Z,66.70
2019-05-14T06:11:08.427Z,66.20
2019-05-14T06:13:39.177Z,64.10
2019-05-14T06:16:09.480Z,66.10
2019-05-14T06:18:39.062Z,65.50
2019-05-14T06:21:09.138Z,64.80
2019-05-14T06:23:38.557Z,63.20
2019-05-14T06:26:11.527Z,61.40
2019-05-14T06:28:40.892Z,61.10
2019-05-14T06:31:09.869Z,59.20
2019-05-14T06:33:40.235Z,59.30
2019-05-14T06:36:08.982Z,57.80
2019-05-14T06:38:38.879Z,56.80
2019-05-14T06:41:08.464Z,56.80
2019-05-14T06:43:39.189Z,56.50
2019-05-14T06:46:09.057Z,55.80
2019-05-14T06:48:39.555Z,55.30
2019-05-14T06:51:08.859Z,57.70
2019-05-14T06:53:39.255Z,55.70
2019-05-14T06:56:08.332Z,58.10
2019-05-14T06:58:38.877Z,56.90
2019-05-14T07:01:09.267Z,55.70
2019-05-14T07:03:38.255Z,56.60
2019-05-14T07:06:09.063Z,57.00
2019-05-14T07:08:39.199Z,55.30
2019-05-14T07:11:08.564Z,55.90
2019-05-14T07:13:38.482Z,56.80
2019-05-14T07:16:09.015Z,56.30
2019-05-14T07:18:48.610Z,52.80
2019-05-14T07:21:08.268Z,52.80
2019-05-14T07:23:38.436Z,51.20
2019-05-14T07:26:08.342Z,54.40
2019-05-14T07:28:42.179Z,54.40
2019-05-14T07:31:09.869Z,56.20
2019-05-14T07:33:38.758Z,54.90
2019-05-14T07:36:08.898Z,53.00
2019-05-14T07:38:39.158Z,51.10
2019-05-14T07:41:09.293Z,51.80
2019-05-14T07:43:39.402Z,50.30
2019-05-14T07:46:08.625Z,52.80
2019-05-14T07:48:39.176Z,52.60
2019-05-14T07:51:08.946Z,50.20
2019-05-14T07:53:41.645Z,50.70
2019-05-14T07:56:09.512Z,53.00
2019-05-14T07:58:38.816Z,53.90
2019-05-14T08:01:09.484Z,50.70
2019-05-14T08:03:38.318Z,51.00
2019-05-14T08:06:08.335Z,50.90
2019-05-14T08:08:38.531Z,50.70
2019-05-14T08:11:08.735Z,51.30
2019-05-14T08:13:39.043Z,52.00
2019-05-14T08:16:09.010Z,50.20
2019-05-14T08:18:39.634Z,51.00
2019-05-14T08:21:08.421Z,51.60
2019-05-14T08:23:39.253Z,52.10
2019-05-14T08:26:07.998Z,52.70
2019-05-14T08:28:38.220Z,51.70
2019-05-14T08:31:09.104Z,50.10
2019-05-14T08:33:39.454Z,49.80
2019-05-14T08:36:08.885Z,51.90
2019-05-14T08:38:38.339Z,49.70
2019-05-14T08:41:08.388Z,46.60
2019-05-14T08:43:39.525Z,47.30
2019-05-14T08:46:08.170Z,48.30
2019-05-14T08:48:38.985Z,48.50
2019-05-14T08:51:09.178Z,49.10
2019-05-14T08:53:38.377Z,48.60
2019-05-14T08:56:08.371Z,53.70
2019-05-14T08:58:38.495Z,60.00
2019-05-14T09:01:08.216Z,63.80
2019-05-14T09:03:39.252Z,64.40
2019-05-14T09:06:09.233Z,65.80
2019-05-14T09:08:39.010Z,59.40
2019-05-14T09:11:09.965Z,64.20
2019-05-14T09:13:38.417Z,60.80
2019-05-14T09:16:09.312Z,63.20
2019-05-14T09:18:38.438Z,62.80
2019-05-14T09:21:08.664Z,61.40
2019-05-14T09:23:39.271Z,64.80
2019-05-14T09:26:09.582Z,65.90
2019-05-14T09:28:39.206Z,66.10
2019-05-14T09:31:08.508Z,53.30
2019-05-14T09:33:38.887Z,59.90
2019-05-14T09:36:18.149Z,49.00
2019-05-14T09:38:42.259Z,48.10
2019-05-14T09:41:14.365Z,51.70
2019-05-14T09:43:39.263Z,49.40
2019-05-14T09:46:09.035Z,50.00
2019-05-14T09:48:38.314Z,48.70
2019-05-14T09:51:09.074Z,49.10
2019-05-14T09:53:38.387Z,46.00
2019-05-14T09:56:09.193Z,45.00
2019-05-14T09:58:38.752Z,45.50
2019-05-14T10:01:08.509Z,46.50
2019-05-14T10:03:39.091Z,44.70
2019-05-14T10:06:09.870Z,45.80
2019-05-14T10:08:39.005Z,45.40
2019-05-14T10:11:07.848Z,46.30
2019-05-14T10:13:38.999Z,48.00
2019-05-14T10:16:09.268Z,47.60
2019-05-14T10:18:38.008Z,47.20
2019-05-14T10:21:08.558Z,47.80
2019-05-14T10:23:38.929Z,48.10
2019-05-14T10:26:09.078Z,48.40
2019-05-14T10:28:41.272Z,47.30
2019-05-14T10:31:09.409Z,48.80
2019-05-14T10:33:38.212Z,49.10
2019-05-14T10:36:09.030Z,48.70
2019-05-14T10:38:38.833Z,48.00
2019-05-14T10:41:09.012Z,47.90
2019-05-14T10:43:39.210Z,47.80
2019-05-14T10:46:09.037Z,47.50
2019-05-14T10:48:39.546Z,48.40
2019-05-14T10:51:09.853Z,48.70
2019-05-14T10:53:38.328Z,48.80
2019-05-14T10:56:06.862Z,48.20
2019-05-14T10:58:35.334Z,45.00
2019-05-14T11:01:03.964Z,48.60
2019-05-14T11:03:32.541Z,46.40
2019-05-14T11:06:01.127Z,45.70
2019-05-14T11:08:29.832Z,47.20
2019-05-14T11:11:03.756Z,47.00
2019-05-14T11:13:29.618Z,46.30
2019-05-14T11:15:59.583Z,46.20
2019-05-14T11:18:29.254Z,46.80
2019-05-14T11:21:18.035Z,47.80
2019-05-14T11:23:29.625Z,48.80
2019-05-14T11:25:58.935Z,50.50
2019-05-14T11:28:28.653Z,49.00
2019-05-14T11:30:57.537Z,48.30
2019-05-14T11:33:26.084Z,50.00
2019-05-14T11:35:54.667Z,50.60
2019-05-14T11:38:33.705Z,52.50
2019-05-14T11:40:53.322Z,52.60
2019-05-14T11:43:21.783Z,53.30
2019-05-14T11:45:50.254Z,55.60
2019-05-14T11:48:19.424Z,57.30
2019-05-14T11:50:49.203Z,60.50
2019-05-14T11:53:20.090Z,63.30
2019-05-14T11:55:50.332Z,75.20
2019-05-14T11:58:21.025Z,84.10
2019-05-14T12:00:48.777Z,95.60
2019-05-14T12:03:19.635Z,98.20
2019-05-14T12:05:49.487Z,99.90
2019-05-14T12:08:18.593Z,99.90
2019-05-14T12:10:47.464Z,99.90
2019-05-14T12:13:16.120Z,99.90
2019-05-14T12:15:44.644Z,99.90
2019-05-14T12:18:13.176Z,99.90
2019-05-14T12:20:41.626Z,99.90
2019-05-14T12:23:10.093Z,99.90
2019-05-14T12:25:38.631Z,99.90
2019-05-14T12:28:13.207Z,99.90
2019-05-14T12:30:39.488Z,99.90
2019-05-14T12:33:07.551Z,91.30
2019-05-14T12:35:36.165Z,92.90
2019-05-14T12:38:04.753Z,92.90
2019-05-14T12:40:33.351Z,94.50
2019-05-14T12:43:01.827Z,97.40
2019-05-14T12:45:30.380Z,86.00
2019-05-14T12:47:58.891Z,90.50
2019-05-14T12:50:27.347Z,85.50
2019-05-14T12:52:55.808Z,71.60
2019-05-14T12:55:24.262Z,72.10
2019-05-14T12:57:52.732Z,67.70
2019-05-14T13:00:22.361Z,60.00
2019-05-14T13:02:50.895Z,60.60
2019-05-14T13:05:19.371Z,63.80
2019-05-14T13:07:50.970Z,61.80
2019-05-14T13:10:18.859Z,63.10
2019-05-14T13:12:48.345Z,60.00
2019-05-14T13:15:20.015Z,65.50
2019-05-14T13:17:48.459Z,63.20
2019-05-14T13:20:18.513Z,62.00
2019-05-14T13:22:50.094Z,64.20
2019-05-14T13:25:18.818Z,65.00
2019-05-14T13:27:47.737Z,63.80
2019-05-14T13:30:18.565Z,65.60
2019-05-14T13:32:48.735Z,63.30
2019-05-14T13:35:19.570Z,66.30
2019-05-14T13:37:49.028Z,69.50
2019-05-14T13:40:20.826Z,65.00
2019-05-14T13:42:49.136Z,72.80
2019-05-14T13:45:19.105Z,79.00
2019-05-14T13:47:48.873Z,83.40
2019-05-14T13:50:19.635Z,80.90
2019-05-14T13:53:01.003Z,77.20
2019-05-14T13:55:19.617Z,73.80
2019-05-14T13:57:48.841Z,76.30
2019-05-14T14:00:20.058Z,75.50
2019-05-14T14:02:48.061Z,79.00
2019-05-14T14:05:19.920Z,75.70
2019-05-14T14:07:48.595Z,76.60
2019-05-14T14:10:17.401Z,78.20
2019-05-14T14:12:49.283Z,73.00
2019-05-14T14:15:16.303Z,70.10
2019-05-14T14:17:44.788Z,70.00
2019-05-14T14:20:13.730Z,71.30
2019-05-14T14:22:42.276Z,66.20
2019-05-14T14:25:10.907Z,66.10
2019-05-14T14:27:40.973Z,69.90
2019-05-14T14:30:10.361Z,67.10
2019-05-14T14:32:40.818Z,72.80
2019-05-14T14:35:09.526Z,69.10
2019-05-14T14:37:39.819Z,65.50
2019-05-14T14:40:10.572Z,68.10
2019-05-14T14:42:40.115Z,67.00
2019-05-14T14:45:09.898Z,65.60
2019-05-14T14:47:39.436Z,64.80
2019-05-14T14:50:09.184Z,62.30
2019-05-14T14:52:37.832Z,61.80
2019-05-14T14:55:06.867Z,62.80
2019-05-14T14:57:35.477Z,63.00
2019-05-14T15:00:05.523Z,66.10
2019-05-14T15:02:33.998Z,63.40
2019-05-14T15:05:02.603Z,65.90
2019-05-14T15:07:31.131Z,65.40
2019-05-14T15:09:59.783Z,65.00
2019-05-14T15:12:29.059Z,66.90
2019-05-14T15:14:59.293Z,67.70
2019-05-14T15:17:29.435Z,72.70
2019-05-14T15:19:59.474Z,69.50
2019-05-14T15:22:30.879Z,66.50
2019-05-14T15:24:58.716Z,64.80
2019-05-14T15:27:28.220Z,66.20
2019-05-14T15:29:59.353Z,68.70
2019-05-14T15:32:29.992Z,66.10
2019-05-14T15:34:59.383Z,66.00
2019-05-14T15:37:28.651Z,66.60
2019-05-14T15:39:57.880Z,65.10
2019-05-14T15:42:28.331Z,65.30
2019-05-14T15:44:59.611Z,64.30
2019-05-14T15:47:26.709Z,68.50
2019-05-14T15:49:55.224Z,62.60
2019-05-14T15:52:23.786Z,64.10
2019-05-14T15:54:52.415Z,64.50
2019-05-14T15:57:20.908Z,63.80
2019-05-14T15:59:49.519Z,65.30
2019-05-14T16:02:20.063Z,63.90
2019-05-14T16:04:48.209Z,60.80
2019-05-14T16:07:18.610Z,61.20
2019-05-14T16:09:49.426Z,66.30
2019-05-14T16:12:19.600Z,61.20
2019-05-14T16:14:49.403Z,63.20
2019-05-14T16:17:24.642Z,61.50
2019-05-14T16:19:48.783Z,63.00
2019-05-14T16:22:19.494Z,60.50
2019-05-14T16:24:56.595Z,59.40
2019-05-14T16:27:19.788Z,62.70
2019-05-14T16:29:47.903Z,59.90
2019-05-14T16:32:16.360Z,59.50
2019-05-14T16:34:44.820Z,61.60
2019-05-14T16:37:13.263Z,61.80
2019-05-14T16:39:41.737Z,60.30
2019-05-14T16:42:10.264Z,60.20
2019-05-14T16:44:39.193Z,59.00
2019-05-14T16:47:09.951Z,59.00
2019-05-14T16:49:38.164Z,60.00
2019-05-14T16:52:09.149Z,60.30
2019-05-14T16:54:39.306Z,62.60
2019-05-14T16:57:10.958Z,60.80
2019-05-14T16:59:39.500Z,60.70
2019-05-14T17:02:09.187Z,62.30
2019-05-14T17:04:38.775Z,61.30
2019-05-14T17:07:09.471Z,61.90
2019-05-14T17:09:38.524Z,65.00
2019-05-14T17:12:08.549Z,64.20
2019-05-14T17:14:38.463Z,65.90
2019-05-14T17:17:09.085Z,65.30
2019-05-14T17:19:38.595Z,66.20
2019-05-14T17:22:23.316Z,65.70
2019-05-14T17:24:39.886Z,66.30
2019-05-14T17:27:08.811Z,66.50
2019-05-14T17:29:38.962Z,68.70
2019-05-14T17:32:07.781Z,69.90
2019-05-14T17:34:38.627Z,69.00
2019-05-14T17:37:08.992Z,68.90
2019-05-14T17:39:38.745Z,69.00
2019-05-14T17:42:20.262Z,71.40
2019-05-14T17:44:48.794Z,70.50
2019-05-14T17:47:18.425Z,72.90
2019-05-14T17:49:48.500Z,73.30
2019-05-14T17:52:21.816Z,77.10
2019-05-14T17:54:48.422Z,79.40
2019-05-14T17:57:23.611Z,90.30
2019-05-14T17:59:49.560Z,90.10
2019-05-14T18:02:19.125Z,94.30
2019-05-14T18:04:48.794Z,90.20
2019-05-14T18:07:19.115Z,94.10
2019-05-14T18:09:47.589Z,97.40
2019-05-14T18:12:18.532Z,98.70
2019-05-14T18:14:48.122Z,99.80
2019-05-14T18:17:18.637Z,99.90
2019-05-14T18:19:48.365Z,99.90
2019-05-14T18:22:19.192Z,99.90
2019-05-14T18:24:48.644Z,99.90
2019-05-14T18:27:19.568Z,99.90
2019-05-14T18:29:48.843Z,99.90
2019-05-14T18:32:19.023Z,99.90
2019-05-14T18:34:48.646Z,99.90
2019-05-14T18:37:18.276Z,99.90
2019-05-14T18:39:48.403Z,99.90
2019-05-14T18:42:18.994Z,99.90
2019-05-14T18:44:49.613Z,99.90
2019-05-14T18:47:20.043Z,99.90
2019-05-14T18:49:48.668Z,99.90
2019-05-14T18:52:18.459Z,99.90
2019-05-14T18:54:48.375Z,99.90
2019-05-14T18:57:18.101Z,99.90
2019-05-14T18:59:49.126Z,99.90
2019-05-14T19:02:18.481Z,99.90
2019-05-14T19:04:48.464Z,99.90
2019-05-14T19:07:18.876Z,99.90
2019-05-14T19:09:49.368Z,99.90
2019-05-14T19:12:19.049Z,99.90
2019-05-14T19:14:49.324Z,99.90
2019-05-14T19:17:18.776Z,99.90
2019-05-14T19:19:48.199Z,99.90
2019-05-14T19:22:16.839Z,99.90
2019-05-14T19:24:45.372Z,99.90
2019-05-14T19:27:13.815Z,99.90
2019-05-14T19:29:42.263Z,99.90
2019-05-14T19:32:10.734Z,99.90
2019-05-14T19:34:39.179Z,99.90
2019-05-14T19:37:08.368Z,99.90
2019-05-14T19:39:38.560Z,99.90
2019-05-14T19:42:08.600Z,99.90
2019-05-14T19:44:37.362Z,99.90
2019-05-14T19:47:05.844Z,99.90
2019-05-14T19:49:34.445Z,99.90
2019-05-14T19:52:02.960Z,99.90
2019-05-14T19:54:31.415Z,99.90
2019-05-14T19:57:00.877Z,99.90
2019-05-14T19:59:29.631Z,99.90
2019-05-14T20:01:58.957Z,99.90
2019-05-14T20:04:29.239Z,99.90
2019-05-14T20:06:57.795Z,99.90
2019-05-14T20:09:28.106Z,99.90
2019-05-14T20:11:58.135Z,99.90
2019-05-14T20:14:28.748Z,99.90
2019-05-14T20:16:58.319Z,99.90
2019-05-14T20:19:28.599Z,99.90
2019-05-14T20:21:58.749Z,99.90
2019-05-14T20:24:28.347Z,99.90
2019-05-14T20:27:05.923Z,99.90
2019-05-14T20:29:27.213Z,99.90
2019-05-14T20:31:55.737Z,99.90
2019-05-14T20:34:24.251Z,99.90
2019-05-14T20:36:52.786Z,99.90
2019-05-14T20:39:21.256Z,99.90
2019-05-14T20:41:49.713Z,99.90
2019-05-14T20:44:18.880Z,99.90
2019-05-14T20:46:48.956Z,99.90
2019-05-14T20:49:19.024Z,99.90
2019-05-14T20:51:49.415Z,99.90
2019-05-14T20:54:18.491Z,99.90
2019-05-14T20:56:49.078Z,99.90
2019-05-14T20:59:19.120Z,99.90
2019-05-14T21:01:47.454Z,99.90
2019-05-14T21:04:18.684Z,99.90
2019-05-14T21:06:48.481Z,99.90
2019-05-14T21:09:16.261Z,99.90
2019-05-14T21:11:44.789Z,99.90
2019-05-14T21:14:13.311Z,99.90
2019-05-14T21:16:41.779Z,99.90
2019-05-14T21:19:10.306Z,99.90
2019-05-14T21:21:38.751Z,99.90
2019-05-14T21:24:08.838Z,99.90
2019-05-14T21:26:39.883Z,99.90
2019-05-14T21:29:08.002Z,99.90
2019-05-14T21:31:38.597Z,99.90
2019-05-14T21:34:08.197Z,99.90
2019-05-14T21:36:38.937Z,99.90
2019-05-14T21:39:08.096Z,99.90
2019-05-14T21:41:38.651Z,99.90
2019-05-14T21:44:08.543Z,99.90
2019-05-14T21:46:39.839Z,99.90
2019-05-14T21:49:10.525Z,99.90
2019-05-14T21:51:39.227Z,99.90
2019-05-14T21:54:09.482Z,99.90
2019-05-14T21:56:38.864Z,99.90
2019-05-14T21:59:09.456Z,99.90
2019-05-14T22:01:39.284Z,99.90
2019-05-14T22:04:11.173Z,99.90
2019-05-14T22:06:41.129Z,99.90
2019-05-14T22:09:08.842Z,99.90
2019-05-14T22:11:39.311Z,99.90
2019-05-14T22:14:08.017Z,99.90
2019-05-14T22:16:38.144Z,99.90
2019-05-14T22:19:08.532Z,99.90
2019-05-14T22:21:38.715Z,99.90
2019-05-14T22:24:07.358Z,99.90
2019-05-14T22:26:35.877Z,99.90
2019-05-14T22:29:04.336Z,99.90
2019-05-14T22:31:32.782Z,99.90
2019-05-14T22:34:01.236Z,99.90
2019-05-14T22:36:29.696Z,99.90
2019-05-14T22:38:58.236Z,99.90
2019-05-14T22:41:28.894Z,99.90
2019-05-14T22:43:59.719Z,99.90
2019-05-14T22:46:27.040Z,99.90
2019-05-14T22:48:55.595Z,99.90
2019-05-14T22:51:24.037Z,99.90
2019-05-14T22:53:52.498Z,99.90
2019-05-14T22:56:21.016Z,99.90
2019-05-14T22:58:49.551Z,99.90
2019-05-14T23:01:18.541Z,99.90
2019-05-14T23:03:48.965Z,99.90
2019-05-14T23:06:18.776Z,99.90
2019-05-14T23:08:48.725Z,99.90
2019-05-14T23:11:19.524Z,99.90
2019-05-14T23:13:48.781Z,99.90
2019-05-14T23:16:32.747Z,99.90
2019-05-14T23:18:48.743Z,99.90
2019-05-14T23:21:17.427Z,99.90
2019-05-14T23:23:45.942Z,99.90
2019-05-14T23:26:14.408Z,99.90
2019-05-14T23:28:45.935Z,99.90
2019-05-14T23:31:13.110Z,99.90
2019-05-14T23:33:41.634Z,99.90
2019-05-14T23:36:10.256Z,99.90
2019-05-14T23:38:39.347Z,99.90
2019-05-14T23:41:08.680Z,99.90
2019-05-14T23:43:39.075Z,99.90
2019-05-14T23:46:09.381Z,99.90
2019-05-14T23:48:39.275Z,99.90
2019-05-14T23:51:08.297Z,99.90
2019-05-14T23:53:39.093Z,99.90
2019-05-14T23:56:08.552Z,99.90
2019-05-14T23:58:37.468Z,99.90
